Time;durP1;ratioP1;P1;durP2;ratioP2;P2;SDS_P1;SDS_P2;PMS_P1;PMS_P2;Temp;Humidity;BMP_temperature;BMP_pressure;BME280_temperature;BME280_humidity;BME280_pressure;Samples;Min_cycle;Max_cycle;Signal;HPM_P1;HPM_P2
2023/08/19 00:01:12;;;;;;;;;;;20.90;99.90;;;;;;5095993;28;20014;-46
2023/08/19 00:03:38;;;;;;;;;;;20.90;99.90;;;;;;5095702;28;19992;-46
2023/08/19 00:06:12;;;;;;;;;;;20.90;99.90;;;;;;5095962;28;19924;-46
2023/08/19 00:08:38;;;;;;;;;;;20.90;99.90;;;;;;5096270;28;19970;-47
2023/08/19 00:11:04;;;;;;;;;;;20.90;99.90;;;;;;5078146;28;19924;-46
2023/08/19 00:13:32;;;;;;;;;;;20.80;99.90;;;;;;5096068;28;19976;-46
2023/08/19 00:15:58;;;;;;;;;;;20.90;99.90;;;;;;5095815;28;19924;-46
2023/08/19 00:18:23;;;;;;;;;;;20.80;99.90;;;;;;5095839;28;19930;-46
2023/08/19 00:20:52;;;;;;;;;;;20.80;99.90;;;;;;5095787;28;19924;-46
2023/08/19 00:23:17;;;;;;;;;;;20.70;99.90;;;;;;5095956;28;19971;-45
2023/08/19 00:25:43;;;;;;;;;;;20.70;99.90;;;;;;5095843;28;19967;-47
2023/08/19 00:28:09;;;;;;;;;;;20.70;99.90;;;;;;5095718;28;20461;-47
2023/08/19 00:30:35;;;;;;;;;;;20.70;99.90;;;;;;5095627;28;19931;-46
2023/08/19 00:33:00;;;;;;;;;;;20.60;99.90;;;;;;5095477;28;19924;-46
2023/08/19 00:35:26;;;;;;;;;;;20.60;99.90;;;;;;5095634;28;19978;-46
2023/08/19 00:37:52;;;;;;;;;;;20.60;99.90;;;;;;5095427;28;20382;-46
2023/08/19 00:40:17;;;;;;;;;;;20.60;99.90;;;;;;5077656;28;20011;-46
2023/08/19 00:42:43;;;;;;;;;;;20.60;99.90;;;;;;5095605;28;19924;-46
2023/08/19 00:45:09;;;;;;;;;;;20.60;99.90;;;;;;5095255;28;20383;-45
2023/08/19 00:47:36;;;;;;;;;;;20.50;99.90;;;;;;5095212;28;19924;-47
2023/08/19 00:50:04;;;;;;;;;;;20.50;99.90;;;;;;5095114;28;19928;-45
2023/08/19 00:52:29;;;;;;;;;;;20.50;99.90;;;;;;5095147;28;19932;-46
2023/08/19 00:54:55;;;;;;;;;;;20.50;99.90;;;;;;5095053;28;19924;-46
2023/08/19 00:57:21;;;;;;;;;;;20.50;99.90;;;;;;5095171;28;19931;-46
2023/08/19 00:59:47;;;;;;;;;;;20.40;99.90;;;;;;5095087;28;19924;-46
2023/08/19 01:02:12;;;;;;;;;;;20.40;99.90;;;;;;5094653;28;19931;-47
2023/08/19 01:04:38;;;;;;;;;;;20.40;99.90;;;;;;5076659;28;19928;-46
2023/08/19 01:07:28;;;;;;;;;;;20.40;99.90;;;;;;5094875;28;19924;-46
2023/08/19 01:10:03;;;;;;;;;;;20.40;99.90;;;;;;5084580;28;20436;-46
2023/08/19 01:12:31;;;;;;;;;;;20.40;99.90;;;;;;5094254;28;19924;-45
2023/08/19 01:15:00;;;;;;;;;;;20.30;99.90;;;;;;5094552;28;19975;-46
2023/08/19 01:17:28;;;;;;;;;;;20.30;99.90;;;;;;5094848;28;19924;-45
2023/08/19 01:19:54;;;;;;;;;;;20.30;99.90;;;;;;5094792;28;19928;-45
2023/08/19 01:22:24;;;;;;;;;;;20.30;99.90;;;;;;5076656;28;20336;-45
2023/08/19 01:24:51;;;;;;;;;;;20.20;99.90;;;;;;5094838;28;19958;-46
2023/08/19 01:27:24;;;;;;;;;;;20.20;99.90;;;;;;5094376;28;20394;-45
2023/08/19 01:29:50;;;;;;;;;;;20.20;99.90;;;;;;5094623;28;19954;-45
2023/08/19 01:32:17;;;;;;;;;;;20.20;99.90;;;;;;5094564;28;19928;-46
2023/08/19 01:34:43;;;;;;;;;;;20.20;99.90;;;;;;5094515;28;19928;-46
2023/08/19 01:37:11;;;;;;;;;;;20.20;99.90;;;;;;5076423;28;19954;-46
2023/08/19 01:39:37;;;;;;;;;;;20.20;99.90;;;;;;5094224;28;19924;-45
2023/08/19 01:42:03;;;;;;;;;;;20.20;99.90;;;;;;5076259;28;19924;-45
2023/08/19 01:44:30;;;;;;;;;;;20.20;99.90;;;;;;5094574;28;19924;-45
2023/08/19 01:46:56;;;;;;;;;;;20.10;99.90;;;;;;5094376;28;19951;-46
2023/08/19 01:49:21;;;;;;;;;;;20.10;99.90;;;;;;5076600;28;20379;-45
2023/08/19 01:51:48;;;;;;;;;;;20.10;99.90;;;;;;5094350;28;19970;-46
2023/08/19 01:54:13;;;;;;;;;;;20.10;99.90;;;;;;5094270;28;20011;-47
2023/08/19 01:56:39;;;;;;;;;;;20.10;99.90;;;;;;5094189;28;20018;-46
2023/08/19 01:59:04;;;;;;;;;;;20.10;99.90;;;;;;5094270;28;19924;-45
2023/08/19 02:01:30;;;;;;;;;;;20.10;99.90;;;;;;5094121;28;19977;-46
2023/08/19 02:03:55;;;;;;;;;;;20.10;99.90;;;;;;5075878;28;19977;-46
2023/08/19 02:06:21;;;;;;;;;;;20.10;99.90;;;;;;5076350;28;19925;-46
2023/08/19 02:08:46;;;;;;;;;;;20.10;99.90;;;;;;5094142;28;19985;-45
2023/08/19 02:11:12;;;;;;;;;;;20.10;99.90;;;;;;5093991;28;19925;-45
2023/08/19 02:13:37;;;;;;;;;;;20.00;99.90;;;;;;5076333;28;19924;-46
2023/08/19 02:16:03;;;;;;;;;;;20.00;99.90;;;;;;5094054;28;20399;-46
2023/08/19 02:18:29;;;;;;;;;;;20.00;99.90;;;;;;5093978;28;19924;-46
2023/08/19 02:20:54;;;;;;;;;;;19.90;99.90;;;;;;5093945;28;20012;-46
2023/08/19 02:23:20;;;;;;;;;;;20.00;99.90;;;;;;5093828;28;19990;-46
2023/08/19 02:25:45;;;;;;;;;;;19.90;99.90;;;;;;5097862;28;19928;-47
2023/08/19 02:28:11;;;;;;;;;;;19.90;99.90;;;;;;5098103;28;19924;-46
2023/08/19 02:30:36;;;;;;;;;;;19.90;99.90;;;;;;5098005;28;20326;-45
2023/08/19 02:33:05;;;;;;;;;;;19.80;99.90;;;;;;5079946;28;19924;-45
2023/08/19 02:35:31;;;;;;;;;;;19.80;99.90;;;;;;5097821;28;20018;-45
2023/08/19 02:37:56;;;;;;;;;;;19.90;99.90;;;;;;5097900;28;20010;-45
2023/08/19 02:40:22;;;;;;;;;;;19.80;99.90;;;;;;5097657;28;19962;-46
2023/08/19 02:42:48;;;;;;;;;;;19.80;99.90;;;;;;5097667;28;19930;-45
2023/08/19 02:45:14;;;;;;;;;;;19.80;99.90;;;;;;5097774;28;19924;-47
2023/08/19 02:47:39;;;;;;;;;;;19.80;99.90;;;;;;5097666;28;19924;-45
2023/08/19 02:50:05;;;;;;;;;;;19.80;99.90;;;;;;5097641;28;19924;-47
2023/08/19 02:52:31;;;;;;;;;;;19.80;99.90;;;;;;5097485;28;19924;-45
2023/08/19 02:54:56;;;;;;;;;;;19.80;99.90;;;;;;5097258;28;19924;-45
2023/08/19 02:57:22;;;;;;;;;;;19.80;99.90;;;;;;5097617;28;19967;-46
2023/08/19 02:59:47;;;;;;;;;;;19.80;99.90;;;;;;5097474;28;20371;-46
2023/08/19 03:02:13;;;;;;;;;;;19.80;99.90;;;;;;5097251;28;20313;-46
2023/08/19 03:04:39;;;;;;;;;;;19.80;99.90;;;;;;5097403;28;19932;-45
2023/08/19 03:07:04;;;;;;;;;;;19.70;99.90;;;;;;5097186;28;19924;-45
2023/08/19 03:09:30;;;;;;;;;;;19.70;99.90;;;;;;5097015;28;19947;-46
2023/08/19 03:11:55;;;;;;;;;;;19.70;99.90;;;;;;5097247;28;19935;-46
2023/08/19 03:14:21;;;;;;;;;;;19.70;99.90;;;;;;5097163;28;19964;-45
2023/08/19 03:16:46;;;;;;;;;;;19.70;99.90;;;;;;5079318;28;19928;-45
2023/08/19 03:19:14;;;;;;;;;;;19.70;99.90;;;;;;5097132;28;19932;-45
2023/08/19 03:21:40;;;;;;;;;;;19.70;99.90;;;;;;5097135;28;19946;-45
2023/08/19 03:24:05;;;;;;;;;;;19.70;99.90;;;;;;5096780;28;20375;-45
2023/08/19 03:26:31;;;;;;;;;;;19.70;99.90;;;;;;5079546;28;19928;-46
2023/08/19 03:28:56;;;;;;;;;;;19.70;99.90;;;;;;5097325;28;20003;-45
2023/08/19 03:31:22;;;;;;;;;;;19.70;99.90;;;;;;5078604;28;19990;-45
2023/08/19 03:33:48;;;;;;;;;;;19.70;99.90;;;;;;5096899;28;19924;-45
2023/08/19 03:36:14;;;;;;;;;;;19.70;99.90;;;;;;5096263;28;19924;-46
2023/08/19 03:38:39;;;;;;;;;;;19.70;99.90;;;;;;5078912;28;19939;-45
2023/08/19 03:41:05;;;;;;;;;;;19.70;99.90;;;;;;5096443;28;19928;-46
2023/08/19 03:43:30;;;;;;;;;;;19.70;99.90;;;;;;5096575;28;19925;-46
2023/08/19 03:45:56;;;;;;;;;;;19.70;99.90;;;;;;5096603;28;19934;-45
2023/08/19 03:48:21;;;;;;;;;;;19.80;99.90;;;;;;5096520;28;19924;-45
2023/08/19 03:50:47;;;;;;;;;;;19.70;99.90;;;;;;5096522;28;19924;-45
2023/08/19 03:53:12;;;;;;;;;;;19.70;99.90;;;;;;5096198;28;20028;-46
2023/08/19 03:55:38;;;;;;;;;;;19.70;99.90;;;;;;5096127;28;19931;-45
2023/08/19 03:58:03;;;;;;;;;;;19.80;99.90;;;;;;5096396;28;19924;-45
2023/08/19 04:00:30;;;;;;;;;;;19.70;99.90;;;;;;5096321;28;19958;-46
2023/08/19 04:02:55;;;;;;;;;;;19.70;99.90;;;;;;5077959;28;19931;-45
2023/08/19 04:05:21;;;;;;;;;;;19.70;99.90;;;;;;5096273;28;19928;-45
2023/08/19 04:07:46;;;;;;;;;;;19.70;99.90;;;;;;5096155;28;20419;-45
2023/08/19 04:10:12;;;;;;;;;;;19.70;99.90;;;;;;5077881;28;19932;-45
2023/08/19 04:12:38;;;;;;;;;;;19.70;99.90;;;;;;5096109;28;20015;-45
2023/08/19 04:15:03;;;;;;;;;;;19.70;99.90;;;;;;5078166;28;20363;-46
2023/08/19 04:17:32;;;;;;;;;;;19.70;99.90;;;;;;5096075;28;19924;-46
2023/08/19 04:19:57;;;;;;;;;;;19.70;99.90;;;;;;5095798;28;19931;-45
2023/08/19 04:22:23;;;;;;;;;;;19.70;99.90;;;;;;5077767;28;20295;-46
2023/08/19 04:24:49;;;;;;;;;;;19.70;99.90;;;;;;5095556;28;19928;-46
2023/08/19 04:27:15;;;;;;;;;;;19.70;99.90;;;;;;5095885;28;20052;-46
2023/08/19 04:29:40;;;;;;;;;;;19.70;99.90;;;;;;5095741;28;19978;-47
2023/08/19 04:32:06;;;;;;;;;;;19.70;99.90;;;;;;5095523;28;19928;-50
2023/08/19 04:34:32;;;;;;;;;;;19.70;99.90;;;;;;5077907;28;19931;-45
2023/08/19 04:36:57;;;;;;;;;;;19.70;99.90;;;;;;5095570;28;19928;-49
2023/08/19 04:39:23;;;;;;;;;;;19.70;99.90;;;;;;5095495;28;19931;-46
2023/08/19 04:41:49;;;;;;;;;;;19.70;99.90;;;;;;5095466;28;20041;-49
2023/08/19 04:44:15;;;;;;;;;;;19.70;99.90;;;;;;5095418;28;20481;-49
2023/08/19 04:46:41;;;;;;;;;;;19.70;99.90;;;;;;5094603;28;19971;-50
2023/08/19 04:49:07;;;;;;;;;;;19.70;99.90;;;;;;5095276;28;19924;-48
2023/08/19 04:51:33;;;;;;;;;;;19.70;99.90;;;;;;5095197;28;20353;-48
2023/08/19 04:53:58;;;;;;;;;;;19.70;99.90;;;;;;5077158;28;20022;-46
2023/08/19 04:56:24;;;;;;;;;;;19.70;99.90;;;;;;5077437;28;19930;-46
2023/08/19 04:58:50;;;;;;;;;;;19.80;99.90;;;;;;5095160;28;19924;-47
2023/08/19 05:01:15;;;;;;;;;;;19.80;99.90;;;;;;5095396;28;19928;-45
2023/08/19 05:03:41;;;;;;;;;;;19.80;99.90;;;;;;5094970;28;19924;-46
2023/08/19 05:06:07;;;;;;;;;;;19.80;99.90;;;;;;5076861;28;19938;-46
2023/08/19 05:08:32;;;;;;;;;;;19.80;99.90;;;;;;5094741;28;19931;-47
2023/08/19 05:10:58;;;;;;;;;;;19.90;99.90;;;;;;5094943;28;19924;-45
2023/08/19 05:13:23;;;;;;;;;;;19.90;99.90;;;;;;5077049;28;19924;-47
2023/08/19 05:15:49;;;;;;;;;;;19.90;99.90;;;;;;5094776;28;19924;-45
2023/08/19 05:18:15;;;;;;;;;;;20.00;99.90;;;;;;5094807;28;19932;-46
2023/08/19 05:20:41;;;;;;;;;;;20.00;99.90;;;;;;5094801;28;20417;-45
2023/08/19 05:23:06;;;;;;;;;;;20.10;99.90;;;;;;5076609;28;20431;-46
2023/08/19 05:25:32;;;;;;;;;;;20.10;99.90;;;;;;5095059;28;19930;-46
2023/08/19 05:27:57;;;;;;;;;;;20.10;99.90;;;;;;5094607;28;19924;-46
2023/08/19 05:30:23;;;;;;;;;;;20.10;99.90;;;;;;5094802;28;19924;-45
2023/08/19 05:32:48;;;;;;;;;;;20.20;99.90;;;;;;5094737;28;19967;-46
2023/08/19 05:35:14;;;;;;;;;;;20.20;99.90;;;;;;5094398;28;19924;-46
2023/08/19 05:37:40;;;;;;;;;;;20.20;99.90;;;;;;5094375;28;19931;-46
2023/08/19 05:40:05;;;;;;;;;;;20.30;99.90;;;;;;5094571;28;19927;-47
2023/08/19 05:42:31;;;;;;;;;;;20.30;99.90;;;;;;5094654;28;20321;-45
2023/08/19 05:44:57;;;;;;;;;;;20.40;99.90;;;;;;5094359;28;20018;-45
2023/08/19 05:47:22;;;;;;;;;;;20.40;99.90;;;;;;5094230;28;19924;-46
2023/08/19 05:49:48;;;;;;;;;;;20.40;99.90;;;;;;5076726;28;19924;-47
2023/08/19 05:52:13;;;;;;;;;;;20.50;99.90;;;;;;5094079;28;19930;-46
2023/08/19 05:54:39;;;;;;;;;;;20.50;99.90;;;;;;5094259;28;19931;-45
2023/08/19 05:57:05;;;;;;;;;;;20.50;99.90;;;;;;5093413;28;20355;-45
2023/08/19 05:59:30;;;;;;;;;;;20.50;99.90;;;;;;5094088;28;19924;-45
2023/08/19 06:01:56;;;;;;;;;;;20.60;99.90;;;;;;5094093;28;20383;-46
2023/08/19 06:04:22;;;;;;;;;;;20.60;99.90;;;;;;5093824;28;19924;-45
2023/08/19 06:06:47;;;;;;;;;;;20.60;99.90;;;;;;5093877;28;20275;-45
2023/08/19 06:09:19;;;;;;;;;;;20.60;99.90;;;;;;5060567;28;19986;-45
2023/08/19 06:11:48;;;;;;;;;;;20.70;99.90;;;;;;5094166;28;19928;-46
2023/08/19 06:14:14;;;;;;;;;;;20.70;99.90;;;;;;5094080;28;20058;-47
2023/08/19 06:16:40;;;;;;;;;;;20.80;99.90;;;;;;5093886;28;19986;-46
2023/08/19 06:19:06;;;;;;;;;;;20.80;99.90;;;;;;5094074;28;20018;-45
2023/08/19 06:21:31;;;;;;;;;;;20.80;99.90;;;;;;5093997;28;20367;-45
2023/08/19 06:23:57;;;;;;;;;;;20.80;99.90;;;;;;5093943;28;19931;-46
2023/08/19 06:26:22;;;;;;;;;;;20.90;99.90;;;;;;5094088;28;20018;-46
2023/08/19 06:28:48;;;;;;;;;;;20.90;99.90;;;;;;5076095;28;19930;-46
2023/08/19 06:31:14;;;;;;;;;;;21.00;99.90;;;;;;5093935;28;19924;-46
2023/08/19 06:33:40;;;;;;;;;;;21.00;99.90;;;;;;5093846;28;19949;-46
2023/08/19 06:36:06;;;;;;;;;;;21.10;99.90;;;;;;5075968;28;20019;-46
2023/08/19 06:38:32;;;;;;;;;;;21.10;99.90;;;;;;5093875;28;19950;-46
2023/08/19 06:41:00;;;;;;;;;;;21.10;99.90;;;;;;5093958;28;19928;-46
2023/08/19 06:43:26;;;;;;;;;;;21.10;99.90;;;;;;5093770;28;19928;-45
2023/08/19 06:45:53;;;;;;;;;;;21.20;99.90;;;;;;5075641;28;19950;-46
2023/08/19 06:48:20;;;;;;;;;;;21.20;99.90;;;;;;5093622;28;19938;-46
2023/08/19 06:50:46;;;;;;;;;;;21.30;99.90;;;;;;5075779;28;19953;-46
2023/08/19 06:53:12;;;;;;;;;;;21.30;99.90;;;;;;5093762;28;19924;-46
2023/08/19 06:55:39;;;;;;;;;;;21.30;99.90;;;;;;5093616;28;19924;-47
2023/08/19 06:58:07;;;;;;;;;;;21.30;99.90;;;;;;5093651;28;20056;-46
2023/08/19 07:00:33;;;;;;;;;;;21.30;99.90;;;;;;5093712;28;20367;-46
2023/08/19 07:03:00;;;;;;;;;;;21.30;99.90;;;;;;5092088;28;19924;-46
2023/08/19 07:05:27;;;;;;;;;;;21.30;99.90;;;;;;5093492;28;19933;-46
2023/08/19 07:07:55;;;;;;;;;;;21.30;99.90;;;;;;5093751;28;19924;-46
2023/08/19 07:10:21;;;;;;;;;;;21.30;99.90;;;;;;5094999;28;19959;-46
2023/08/19 07:12:47;;;;;;;;;;;21.30;99.90;;;;;;5097141;28;20432;-46
2023/08/19 07:15:13;;;;;;;;;;;21.30;99.90;;;;;;5097388;28;19977;-46
2023/08/19 07:17:43;;;;;;;;;;;21.30;99.90;;;;;;5097031;28;19979;-46
2023/08/19 07:20:09;;;;;;;;;;;21.30;99.90;;;;;;5097025;28;19970;-46
2023/08/19 07:22:36;;;;;;;;;;;21.30;99.90;;;;;;5097015;28;19924;-46
2023/08/19 07:25:03;;;;;;;;;;;21.30;99.90;;;;;;5096926;28;19969;-47
2023/08/19 07:27:29;;;;;;;;;;;21.30;99.90;;;;;;5097176;28;19924;-47
2023/08/19 07:29:56;;;;;;;;;;;21.30;99.90;;;;;;5078853;28;19924;-45
2023/08/19 07:32:21;;;;;;;;;;;21.30;99.90;;;;;;5096703;28;19924;-46
2023/08/19 07:34:47;;;;;;;;;;;21.30;99.90;;;;;;5096500;28;19928;-46
2023/08/19 07:37:13;;;;;;;;;;;21.40;99.90;;;;;;5096752;28;19924;-47
2023/08/19 07:39:38;;;;;;;;;;;21.40;99.90;;;;;;5096653;28;19924;-46
2023/08/19 07:42:04;;;;;;;;;;;21.40;99.90;;;;;;5096845;28;19931;-46
2023/08/19 07:44:29;;;;;;;;;;;21.40;99.90;;;;;;5096515;28;20390;-46
2023/08/19 07:46:55;;;;;;;;;;;21.50;99.90;;;;;;5096474;28;19924;-46
2023/08/19 07:49:21;;;;;;;;;;;21.50;99.90;;;;;;5096310;28;20378;-46
2023/08/19 07:51:46;;;;;;;;;;;21.50;99.90;;;;;;5078538;28;20306;-45
2023/08/19 07:54:12;;;;;;;;;;;21.60;99.90;;;;;;5078620;28;19928;-46
2023/08/19 07:56:37;;;;;;;;;;;21.60;99.90;;;;;;5078646;28;19924;-46
2023/08/19 07:59:03;;;;;;;;;;;21.60;99.90;;;;;;5096290;28;20337;-46
2023/08/19 08:01:29;;;;;;;;;;;21.70;99.90;;;;;;5078379;28;20373;-46
2023/08/19 08:03:54;;;;;;;;;;;21.70;99.90;;;;;;5096223;28;19924;-45
2023/08/19 08:06:20;;;;;;;;;;;21.70;99.90;;;;;;5096249;28;19982;-46
2023/08/19 08:08:46;;;;;;;;;;;21.80;99.90;;;;;;5096097;28;19928;-47
2023/08/19 08:11:11;;;;;;;;;;;21.80;99.90;;;;;;5096077;28;19924;-46
2023/08/19 08:13:37;;;;;;;;;;;21.80;99.90;;;;;;5078256;28;19924;-45
2023/08/19 08:16:02;;;;;;;;;;;21.80;99.90;;;;;;5095825;28;19931;-46
2023/08/19 08:18:28;;;;;;;;;;;21.90;99.90;;;;;;5095711;28;20275;-46
2023/08/19 08:20:54;;;;;;;;;;;21.90;99.90;;;;;;5095952;28;20256;-46
2023/08/19 08:23:19;;;;;;;;;;;21.90;99.90;;;;;;5096482;28;19951;-45
2023/08/19 08:25:45;;;;;;;;;;;21.90;99.90;;;;;;5078120;28;20284;-45
2023/08/19 08:28:11;;;;;;;;;;;22.00;99.90;;;;;;5095805;28;19931;-46
2023/08/19 08:30:37;;;;;;;;;;;22.00;99.90;;;;;;5095653;28;19947;-46
2023/08/19 08:33:03;;;;;;;;;;;22.00;99.90;;;;;;5095915;28;19932;-45
2023/08/19 08:35:28;;;;;;;;;;;22.10;99.90;;;;;;5095649;28;19970;-46
2023/08/19 08:37:54;;;;;;;;;;;22.10;99.90;;;;;;5095573;28;19924;-45
2023/08/19 08:40:19;;;;;;;;;;;22.20;99.90;;;;;;5095756;28;20015;-46
2023/08/19 08:42:46;;;;;;;;;;;22.20;99.90;;;;;;5095296;28;20359;-45
2023/08/19 08:45:11;;;;;;;;;;;22.20;99.90;;;;;;5095325;28;19924;-46
2023/08/19 08:47:38;;;;;;;;;;;22.30;99.90;;;;;;5095321;28;19931;-45
2023/08/19 08:50:04;;;;;;;;;;;22.30;99.90;;;;;;5095400;28;19930;-45
2023/08/19 08:52:30;;;;;;;;;;;22.30;99.90;;;;;;5095597;28;20010;-46
2023/08/19 08:54:57;;;;;;;;;;;22.40;99.90;;;;;;5095394;28;19994;-47
2023/08/19 08:57:22;;;;;;;;;;;22.40;99.90;;;;;;5077299;28;19931;-47
2023/08/19 08:59:48;;;;;;;;;;;22.50;99.90;;;;;;5095172;28;19931;-46
2023/08/19 09:02:14;;;;;;;;;;;22.50;99.90;;;;;;5094886;28;19924;-46
2023/08/19 09:04:43;;;;;;;;;;;22.60;99.90;;;;;;5094973;28;19924;-46
2023/08/19 09:07:10;;;;;;;;;;;22.70;99.90;;;;;;5094958;28;20010;-46
2023/08/19 09:09:36;;;;;;;;;;;22.70;99.90;;;;;;5095107;28;20027;-46
2023/08/19 09:12:03;;;;;;;;;;;22.80;99.90;;;;;;5094802;28;19924;-50
2023/08/19 09:14:38;;;;;;;;;;;22.90;99.90;;;;;;5095076;28;19931;-47
2023/08/19 09:17:03;;;;;;;;;;;22.90;99.90;;;;;;5095559;28;19976;-50
2023/08/19 09:19:29;;;;;;;;;;;23.00;99.90;;;;;;5095345;28;19928;-49
2023/08/19 09:21:55;;;;;;;;;;;23.10;99.90;;;;;;5076714;28;20375;-49
2023/08/19 09:24:21;;;;;;;;;;;23.20;99.90;;;;;;5094520;28;19982;-50
2023/08/19 09:26:47;;;;;;;;;;;23.30;99.90;;;;;;5094558;28;19936;-47
2023/08/19 09:29:13;;;;;;;;;;;23.40;99.90;;;;;;5094590;28;20393;-46
2023/08/19 09:31:39;;;;;;;;;;;23.50;99.90;;;;;;5094663;28;20022;-48
2023/08/19 09:34:05;;;;;;;;;;;23.60;99.90;;;;;;5094207;28;19924;-47
2023/08/19 09:36:30;;;;;;;;;;;23.70;99.90;;;;;;5094504;28;19924;-49
2023/08/19 09:38:57;;;;;;;;;;;23.70;99.90;;;;;;5094431;28;19953;-48
2023/08/19 09:41:27;;;;;;;;;;;23.80;99.90;;;;;;5076559;28;19972;-49
2023/08/19 09:43:53;;;;;;;;;;;23.80;99.90;;;;;;5076246;28;20332;-46
2023/08/19 09:46:19;;;;;;;;;;;23.90;99.90;;;;;;5094477;28;19931;-48
2023/08/19 09:48:52;;;;;;;;;;;23.90;99.90;;;;;;5094416;28;20278;-47
2023/08/19 09:51:24;;;;;;;;;;;24.00;99.90;;;;;;5094325;28;19928;-48
2023/08/19 09:53:50;;;;;;;;;;;24.00;99.90;;;;;;5094040;28;19924;-48
2023/08/19 09:56:26;;;;;;;;;;;24.00;99.90;;;;;;5094165;28;19928;-49
2023/08/19 09:58:56;;;;;;;;;;;24.00;99.90;;;;;;5076581;28;19924;-49
2023/08/19 10:01:25;;;;;;;;;;;24.00;99.90;;;;;;5094110;28;19924;-46
2023/08/19 10:03:51;;;;;;;;;;;24.00;99.90;;;;;;5075851;28;19924;-47
2023/08/19 10:06:22;;;;;;;;;;;24.10;99.90;;;;;;5094108;28;20341;-47
2023/08/19 10:08:49;;;;;;;;;;;24.10;99.90;;;;;;5094025;28;19924;-47
2023/08/19 10:11:16;;;;;;;;;;;24.10;99.90;;;;;;5094129;28;19994;-46
2023/08/19 10:13:44;;;;;;;;;;;24.10;99.90;;;;;;5076361;28;19973;-47
2023/08/19 10:16:12;;;;;;;;;;;24.10;99.90;;;;;;5094111;28;19931;-47
2023/08/19 10:18:38;;;;;;;;;;;24.10;99.90;;;;;;5076080;28;19924;-46
2023/08/19 10:21:08;;;;;;;;;;;24.00;99.90;;;;;;5093924;28;19931;-47
2023/08/19 10:23:34;;;;;;;;;;;24.00;99.90;;;;;;5075753;28;20375;-47
2023/08/19 10:26:00;;;;;;;;;;;23.90;99.90;;;;;;5094021;28;20383;-47
2023/08/19 10:28:29;;;;;;;;;;;23.90;99.90;;;;;;5093861;28;19924;-48
2023/08/19 10:31:05;;;;;;;;;;;23.80;99.90;;;;;;5093951;28;19924;-47
2023/08/19 10:33:37;;;;;;;;;;;23.80;99.90;;;;;;5093911;28;19998;-47
2023/08/19 10:36:04;;;;;;;;;;;23.80;99.90;;;;;;5093816;28;20344;-46
2023/08/19 10:38:42;;;;;;;;;;;23.70;99.90;;;;;;5094038;28;20328;-47
2023/08/19 10:41:27;;;;;;;;;;;23.70;99.90;;;;;;5075999;28;19931;-47
2023/08/19 10:43:53;;;;;;;;;;;23.70;99.90;;;;;;5093700;28;19931;-48
2023/08/19 10:46:19;;;;;;;;;;;23.60;99.90;;;;;;5096979;28;19947;-49
2023/08/19 10:48:53;;;;;;;;;;;23.60;99.90;;;;;;5097491;28;20257;-54
2023/08/19 10:51:19;;;;;;;;;;;23.60;99.90;;;;;;5080400;28;19924;-53
2023/08/19 10:54:05;;;;;;;;;;;23.60;99.90;;;;;;5098028;28;19931;-52
2023/08/19 10:56:30;;;;;;;;;;;23.60;99.90;;;;;;5079577;28;20015;-53
2023/08/19 10:58:56;;;;;;;;;;;23.70;99.90;;;;;;5079473;28;20033;-52
2023/08/19 11:01:23;;;;;;;;;;;23.70;99.90;;;;;;5097501;28;19931;-53
2023/08/19 11:03:48;;;;;;;;;;;23.80;99.90;;;;;;5097242;28;19983;-53
2023/08/19 11:06:14;;;;;;;;;;;23.80;99.90;;;;;;5097878;28;20016;-53
2023/08/19 11:08:40;;;;;;;;;;;24.00;99.90;;;;;;5097450;28;20363;-54
2023/08/19 11:11:06;;;;;;;;;;;24.00;99.90;;;;;;5079200;28;19934;-52
2023/08/19 11:13:33;;;;;;;;;;;24.00;99.90;;;;;;5097159;28;20019;-50
2023/08/19 11:16:03;;;;;;;;;;;24.00;99.90;;;;;;5079436;28;19982;-49
2023/08/19 11:18:28;;;;;;;;;;;24.10;99.90;;;;;;5097035;28;20422;-49
2023/08/19 11:20:54;;;;;;;;;;;24.10;99.90;;;;;;5096971;28;19924;-48
2023/08/19 11:23:29;;;;;;;;;;;24.10;99.90;;;;;;5096829;28;19924;-48
2023/08/19 11:25:55;;;;;;;;;;;24.10;99.90;;;;;;5096970;28;19924;-50
2023/08/19 11:28:20;;;;;;;;;;;24.10;99.90;;;;;;5078920;28;20286;-49
2023/08/19 11:30:46;;;;;;;;;;;24.20;99.90;;;;;;5096928;28;19928;-48
2023/08/19 11:33:16;;;;;;;;;;;24.30;99.90;;;;;;5096821;28;19931;-48
2023/08/19 11:35:42;;;;;;;;;;;24.50;99.90;;;;;;5096809;28;20375;-48
2023/08/19 11:38:11;;;;;;;;;;;24.70;99.90;;;;;;5096643;28;19977;-48
2023/08/19 11:40:37;;;;;;;;;;;25.00;99.90;;;;;;5096600;28;19932;-47
2023/08/19 11:43:06;;;;;;;;;;;25.20;99.90;;;;;;5096657;28;20278;-48
2023/08/19 11:45:36;;;;;;;;;;;25.60;99.90;;;;;;5096668;28;19935;-48
2023/08/19 11:48:02;;;;;;;;;;;25.90;99.90;;;;;;5078919;28;19973;-48
2023/08/19 11:50:29;;;;;;;;;;;26.10;99.90;;;;;;5096589;28;20032;-48
2023/08/19 11:52:55;;;;;;;;;;;26.30;99.90;;;;;;5096403;28;19924;-47
2023/08/19 11:55:25;;;;;;;;;;;26.30;99.90;;;;;;5096135;28;19950;-48
2023/08/19 11:57:52;;;;;;;;;;;26.40;99.90;;;;;;5096450;28;19930;-47
2023/08/19 12:00:18;;;;;;;;;;;26.40;99.90;;;;;;5078664;28;19924;-47
2023/08/19 12:02:47;;;;;;;;;;;26.30;99.90;;;;;;5078253;28;19925;-48
2023/08/19 12:05:20;;;;;;;;;;;26.20;99.90;;;;;;5095977;28;20256;-47
2023/08/19 12:07:46;;;;;;;;;;;26.10;99.90;;;;;;5095904;28;19943;-47
2023/08/19 12:10:12;;;;;;;;;;;26.00;99.90;;;;;;5096193;28;19924;-47
2023/08/19 12:12:38;;;;;;;;;;;26.00;99.90;;;;;;5078347;28;19924;-47
2023/08/19 12:15:04;;;;;;;;;;;26.00;99.90;;;;;;5096150;28;20368;-47
2023/08/19 12:17:29;;;;;;;;;;;26.00;99.90;;;;;;5078004;28;19924;-47
2023/08/19 12:19:55;;;;;;;;;;;26.00;99.90;;;;;;5096031;28;19924;-47
2023/08/19 12:22:21;;;;;;;;;;;26.00;99.90;;;;;;5095705;28;20015;-47
2023/08/19 12:24:47;;;;;;;;;;;25.90;99.90;;;;;;5096279;28;19925;-48
2023/08/19 12:27:13;;;;;;;;;;;25.90;99.90;;;;;;5078061;28;20357;-48
2023/08/19 12:29:38;;;;;;;;;;;25.90;99.90;;;;;;5095848;28;20015;-49
2023/08/19 12:32:04;;;;;;;;;;;25.80;99.90;;;;;;5095879;28;20364;-48
2023/08/19 12:34:30;;;;;;;;;;;25.80;99.90;;;;;;5094820;28;19924;-47
2023/08/19 12:36:55;;;;;;;;;;;25.70;99.90;;;;;;5077651;28;19931;-47
2023/08/19 12:39:22;;;;;;;;;;;25.60;99.90;;;;;;5095607;28;19928;-47
2023/08/19 12:41:47;;;;;;;;;;;25.60;99.90;;;;;;5095556;28;19924;-47
2023/08/19 12:44:13;;;;;;;;;;;25.60;99.90;;;;;;5077187;28;19970;-48
2023/08/19 12:46:43;;;;;;;;;;;25.50;99.90;;;;;;5077729;28;19924;-46
2023/08/19 12:49:09;;;;;;;;;;;25.50;99.90;;;;;;5095494;28;19931;-51
2023/08/19 12:51:34;;;;;;;;;;;25.40;99.90;;;;;;5095173;28;19924;-47
2023/08/19 12:54:00;;;;;;;;;;;25.20;99.90;;;;;;5095333;28;20287;-47
2023/08/19 12:56:25;;;;;;;;;;;25.10;99.90;;;;;;5095216;28;19979;-53
2023/08/19 12:58:51;;;;;;;;;;;25.10;99.90;;;;;;5095123;28;19931;-47
2023/08/19 13:01:16;;;;;;;;;;;25.00;99.90;;;;;;5095176;28;19980;-49
2023/08/19 13:03:42;;;;;;;;;;;24.90;99.90;;;;;;5095044;28;19978;-51
2023/08/19 13:06:08;;;;;;;;;;;24.80;99.90;;;;;;5094978;28;20374;-48
2023/08/19 13:08:33;;;;;;;;;;;24.70;99.90;;;;;;5094469;28;19924;-47
2023/08/19 13:10:59;;;;;;;;;;;24.60;99.90;;;;;;5095088;28;20401;-47
2023/08/19 13:13:24;;;;;;;;;;;24.50;99.90;;;;;;5077189;28;19924;-47
2023/08/19 13:15:50;;;;;;;;;;;24.50;99.90;;;;;;5077249;28;20015;-48
2023/08/19 13:18:18;;;;;;;;;;;24.40;99.90;;;;;;5094822;28;19958;-49
2023/08/19 13:20:44;;;;;;;;;;;24.40;99.90;;;;;;5076861;28;19989;-47
2023/08/19 13:23:09;;;;;;;;;;;24.40;99.90;;;;;;5094760;28;19924;-47
2023/08/19 13:25:36;;;;;;;;;;;24.30;99.90;;;;;;5094765;28;20290;-46
2023/08/19 13:28:01;;;;;;;;;;;24.40;99.90;;;;;;5094748;28;19924;-47
2023/08/19 13:30:27;;;;;;;;;;;24.30;99.90;;;;;;5094627;28;19992;-47
2023/08/19 13:32:53;;;;;;;;;;;24.30;99.90;;;;;;5060267;28;20436;-47
2023/08/19 13:35:18;;;;;;;;;;;24.30;99.90;;;;;;5094503;28;20011;-50
2023/08/19 13:37:44;;;;;;;;;;;24.20;99.90;;;;;;5094573;28;19931;-47
2023/08/19 13:40:09;;;;;;;;;;;24.20;99.90;;;;;;5094562;28;19924;-50
2023/08/19 13:42:35;;;;;;;;;;;24.20;99.90;;;;;;5094513;28;20297;-48
2023/08/19 13:45:00;;;;;;;;;;;24.20;99.90;;;;;;5076794;28;19950;-47
2023/08/19 13:47:26;;;;;;;;;;;24.20;99.90;;;;;;5094544;28;19935;-47
2023/08/19 13:49:52;;;;;;;;;;;24.20;99.90;;;;;;5076574;28;20422;-46
2023/08/19 13:52:50;;;;;;;;;;;24.20;99.90;;;;;;5094338;28;19928;-47
2023/08/19 13:55:16;;;;;;;;;;;24.10;99.90;;;;;;5049490;28;19928;-47
2023/08/19 13:57:41;;;;;;;;;;;24.10;99.90;;;;;;5094341;28;19977;-48
2023/08/19 14:00:11;;;;;;;;;;;24.10;99.90;;;;;;5094257;28;20332;-48
2023/08/19 14:02:37;;;;;;;;;;;24.00;99.90;;;;;;5093959;28;19951;-47
2023/08/19 14:05:03;;;;;;;;;;;24.00;99.90;;;;;;5094102;28;20271;-47
2023/08/19 14:07:29;;;;;;;;;;;24.00;99.90;;;;;;5094314;28;20426;-51
2023/08/19 14:09:55;;;;;;;;;;;24.00;99.90;;;;;;5059754;28;20027;-48
2023/08/19 14:12:20;;;;;;;;;;;24.00;99.90;;;;;;5094068;28;19927;-47